Portada
METAR-TAF:

METAR-TAF

Aeroports :

Clearwater, Florida, Estats Units d'Amèrica

latitud: 27-58-36N, longitud: 082-45-31W, altitud: 22 m

Observació

L'informe es va fer fa 6 minuts, a les 06:15 UTC
Vent calma
Temperatura 25°C
Humitat 89%
Pressió 1015 hPa
Visibilitat: 16.1 km
Cel clar

METAR: KCLW 160615Z AUTO 00000KT 10SM CLR 25/23 A2996 RMK AO2

Hora: 02:21 (06:21 UTC)


TAF: manca

Observacions i pronòstics meteorològics de més de 4000 aeroports (METAR i TAF).

Les estacions disponibles són els punts grocs i vermells al mapa.

Posi el ratolí al punt desitjat per veure el nom de l'estació.

Feu clic per veure les observacions i els pronòstics meteorològics.

Per canviar el mapa: feu clic els botons verds amb una creu de color negre per apropar; al botó verd amb un guió per allunyar la imatge; o en les fletxes verdes per a mapes adjacents.


METAR-TAF: